createdAt,value
2022-08-10T00:01:52.142Z,101232.75
2022-08-10T00:04:22.912Z,101243.97
2022-08-10T00:06:54.842Z,101231.22
2022-08-10T00:09:22.837Z,101238.31
2022-08-10T00:11:49.370Z,101240.66
2022-08-10T00:14:16.014Z,101240.28
2022-08-10T00:16:42.385Z,101223.84
2022-08-10T00:19:09.722Z,101235.19
2022-08-10T00:21:36.594Z,101232.13
2022-08-10T00:24:03.146Z,101245.94
2022-08-10T00:27:51.872Z,101239.06
2022-08-10T00:29:16.092Z,101243.75
2022-08-10T00:31:58.278Z,101243.63
2022-08-10T00:34:25.445Z,101240.19
2022-08-10T00:36:51.769Z,101240.25
2022-08-10T00:39:18.182Z,101215.03
2022-08-10T00:41:44.773Z,101237.81
2022-08-10T00:44:11.152Z,101234.97
2022-08-10T00:46:37.529Z,101235.31
2022-08-10T00:49:07.013Z,101230.19
2022-08-10T00:51:43.008Z,101229.91
2022-08-10T00:54:24.622Z,101221.59
2022-08-10T00:57:17.610Z,101224.63
2022-08-10T00:59:57.830Z,101228.47
2022-08-10T01:02:25.710Z,101227.69
2022-08-10T01:05:00.300Z,101211.97
2022-08-10T01:07:45.880Z,101228.22
2022-08-10T01:10:46.492Z,101227.47
2022-08-10T01:13:56.735Z,101226.25
2022-08-10T01:16:56.646Z,101221.13
2022-08-10T01:19:59.555Z,101218.84
2022-08-10T01:22:32.260Z,101215.97
2022-08-10T01:25:33.074Z,101207.91
2022-08-10T01:28:24.080Z,101229.56
2022-08-10T01:30:53.616Z,101226.88
2022-08-10T01:33:58.125Z,101224.59
2022-08-10T01:36:32.361Z,101215.50
2022-08-10T01:39:03.633Z,101217.44
2022-08-10T01:41:54.321Z,101191.91
2022-08-10T01:44:30.440Z,101209.19
2022-08-10T01:47:23.549Z,101215.47
2022-08-10T01:49:55.935Z,101218.00
2022-08-10T01:52:26.449Z,101213.72
2022-08-10T01:54:56.132Z,101218.94
2022-08-10T01:57:24.566Z,101216.06
2022-08-10T01:59:58.723Z,101205.31
2022-08-10T02:02:31.321Z,101218.22
2022-08-10T02:04:59.429Z,101218.03
2022-08-10T02:07:28.493Z,101228.00
2022-08-10T02:09:58.813Z,101223.88
2022-08-10T02:12:30.139Z,101221.38
2022-08-10T02:15:07.009Z,101228.28
2022-08-10T02:18:00.749Z,101205.00
2022-08-10T02:20:31.471Z,101222.88
2022-08-10T02:23:01.430Z,101223.31
2022-08-10T02:25:40.800Z,101228.31
2022-08-10T02:28:10.674Z,101223.75
2022-08-10T02:30:37.954Z,101234.19
2022-08-10T02:33:06.261Z,101234.84
2022-08-10T02:35:53.810Z,101237.13
2022-08-10T02:38:59.727Z,101237.38
2022-08-10T02:45:11.081Z,101235.28
2022-08-10T02:45:29.146Z,101236.75
2022-08-10T02:47:51.086Z,101234.28
2022-08-10T02:50:30.040Z,101238.44
2022-08-10T02:53:56.552Z,101231.81
2022-08-10T02:56:09.717Z,101234.53
2022-08-10T02:58:49.386Z,101231.63
2022-08-10T03:01:21.206Z,101236.44
2022-08-10T03:03:57.438Z,101233.13
2022-08-10T03:06:29.727Z,101233.53
2022-08-10T03:08:59.057Z,101236.66
2022-08-10T03:12:36.157Z,101231.25
2022-08-10T03:14:19.877Z,101210.09
2022-08-10T03:16:46.852Z,101233.56
2022-08-10T03:20:35.846Z,101215.06
2022-08-10T03:22:03.967Z,101222.56
2022-08-10T03:24:33.041Z,101228.59
2022-08-10T03:27:00.865Z,101210.72
2022-08-10T03:29:28.745Z,101222.38
2022-08-10T03:31:56.810Z,101218.81
2022-08-10T03:34:33.529Z,101229.41
2022-08-10T03:37:00.687Z,101208.88
2022-08-10T03:39:27.525Z,101208.88
2022-08-10T03:41:57.597Z,101216.97
2022-08-10T03:44:28.449Z,101197.84
2022-08-10T03:46:55.624Z,101208.22
2022-08-10T03:49:23.114Z,101197.84
2022-08-10T03:51:51.376Z,101199.09
2022-08-10T03:54:19.173Z,101210.31
2022-08-10T03:56:46.042Z,101215.91
2022-08-10T03:59:14.497Z,101220.91
2022-08-10T04:02:46.316Z,101215.28
2022-08-10T04:04:33.182Z,101214.88
2022-08-10T04:07:01.163Z,101211.56
2022-08-10T04:09:53.116Z,101216.97
2022-08-10T04:12:17.663Z,101218.22
2022-08-10T04:14:50.982Z,101205.75
2022-08-10T04:18:03.540Z,101218.84
2022-08-10T04:20:34.213Z,101214.47
2022-08-10T04:23:06.110Z,101195.56
2022-08-10T04:25:32.952Z,101218.63
2022-08-10T04:27:59.625Z,101211.75
2022-08-10T04:30:28.392Z,101198.69
2022-08-10T04:32:56.461Z,101207.00
2022-08-10T04:35:25.702Z,101218.63
2022-08-10T04:37:55.585Z,101229.41
2022-08-10T04:40:29.545Z,101213.22
2022-08-10T04:43:10.853Z,101223.19
2022-08-10T04:45:50.422Z,101222.97
2022-08-10T04:48:39.820Z,101221.31
2022-08-10T04:51:06.565Z,101222.34
2022-08-10T04:53:33.891Z,101213.84
2022-08-10T04:56:20.218Z,101212.38
2022-08-10T04:58:57.589Z,101206.97
2022-08-10T05:01:25.038Z,101214.69
2022-08-10T05:04:35.487Z,101220.47
2022-08-10T05:06:38.026Z,101210.31
2022-08-10T05:09:04.440Z,101222.78
2022-08-10T05:11:30.796Z,101223.38
2022-08-10T05:13:57.157Z,101217.78
2022-08-10T05:16:32.307Z,101225.47
2022-08-10T05:18:59.072Z,101220.69
2022-08-10T05:21:57.016Z,101225.47
2022-08-10T05:24:11.849Z,101234.84
2022-08-10T05:26:55.213Z,101234.44
2022-08-10T05:29:24.680Z,101236.47
2022-08-10T05:31:51.349Z,101215.91
2022-08-10T05:34:20.361Z,101235.44
2022-08-10T05:36:48.266Z,101233.34
2022-08-10T05:39:15.054Z,101234.16
2022-08-10T05:41:46.054Z,101240.16
2022-08-10T05:44:14.611Z,101245.97
2022-08-10T05:46:41.384Z,101247.22
2022-08-10T05:49:07.834Z,101247.41
2022-08-10T05:51:34.469Z,101247.41
2022-08-10T05:54:06.000Z,101237.19
2022-08-10T05:56:53.434Z,101247.75
2022-08-10T06:00:10.714Z,101252.31
2022-08-10T06:02:32.539Z,101241.91
2022-08-10T06:05:10.650Z,101251.00
2022-08-10T06:07:44.697Z,101253.88
2022-08-10T06:10:31.678Z,101225.84
2022-08-10T06:13:26.907Z,101252.75
2022-08-10T06:15:58.793Z,101244.78
2022-08-10T06:18:25.473Z,101241.59
2022-08-10T06:20:52.505Z,101248.59
2022-08-10T06:23:19.466Z,101245.84
2022-08-10T06:26:08.543Z,101249.34
2022-08-10T06:28:37.785Z,101250.97
2022-08-10T06:31:05.927Z,101261.53
2022-08-10T06:33:35.573Z,101257.69
2022-08-10T06:36:03.969Z,101258.47
2022-08-10T06:38:33.917Z,101257.41
2022-08-10T06:41:19.462Z,101264.47
2022-08-10T06:43:52.969Z,101244.84
2022-08-10T06:46:22.650Z,101269.28
2022-08-10T06:48:57.304Z,101258.59
2022-08-10T06:51:27.475Z,101257.44
2022-08-10T06:53:57.610Z,101262.50
2022-08-10T06:56:36.668Z,101266.34
2022-08-10T06:59:21.694Z,101260.63
2022-08-10T07:01:58.574Z,101242.09
2022-08-10T07:04:44.167Z,101260.16
2022-08-10T07:07:16.831Z,101270.72
2022-08-10T07:09:45.085Z,101264.97
2022-08-10T07:12:14.778Z,101263.44
2022-08-10T07:14:44.431Z,101266.56
2022-08-10T07:17:15.718Z,101264.72
2022-08-10T07:19:49.473Z,101266.28
2022-08-10T07:23:26.940Z,101269.13
2022-08-10T07:25:07.964Z,101273.25
2022-08-10T07:27:39.139Z,101279.91
2022-08-10T07:30:21.762Z,101270.13
2022-08-10T07:32:51.174Z,101269.19
2022-08-10T07:35:20.629Z,101267.69
2022-08-10T07:37:49.278Z,101258.22
2022-08-10T07:40:19.218Z,101263.91
2022-08-10T07:42:48.328Z,101270.53
2022-08-10T07:45:15.060Z,101264.47
2022-08-10T07:47:54.593Z,101274.78
2022-08-10T07:50:24.581Z,101261.75
2022-08-10T07:52:54.337Z,101280.47
2022-08-10T07:56:05.316Z,101261.66
2022-08-10T07:58:09.553Z,101288.47
2022-08-10T08:00:37.201Z,101287.72
2022-08-10T08:03:07.085Z,101269.22
2022-08-10T08:05:58.595Z,101282.19
2022-08-10T08:08:21.394Z,101288.47
2022-08-10T08:10:48.436Z,101286.28
2022-08-10T08:13:16.769Z,101296.28
2022-08-10T08:16:18.861Z,101295.41
2022-08-10T08:18:32.022Z,101287.38
2022-08-10T08:21:03.473Z,101285.47
2022-08-10T08:24:10.318Z,101290.91
2022-08-10T08:26:36.676Z,101290.31
2022-08-10T08:29:04.779Z,101283.13
2022-08-10T08:31:32.768Z,101284.16
2022-08-10T08:34:00.992Z,101287.84
2022-08-10T08:36:28.345Z,101282.44
2022-08-10T08:38:55.396Z,101286.94
2022-08-10T08:42:06.358Z,101285.00
2022-08-10T08:44:50.931Z,101281.97
2022-08-10T08:48:04.466Z,101279.09
2022-08-10T08:50:37.035Z,101275.19
2022-08-10T08:53:22.687Z,101275.63
2022-08-10T08:56:05.767Z,101270.56
2022-08-10T08:58:49.321Z,101271.81
2022-08-10T09:01:40.300Z,101269.78
2022-08-10T09:04:33.853Z,101269.63
2022-08-10T09:07:43.749Z,101263.41
2022-08-10T09:10:51.689Z,101259.09
2022-08-10T09:13:44.146Z,101259.13
2022-08-10T09:16:29.374Z,101260.75
2022-08-10T09:19:03.817Z,101249.22
2022-08-10T09:21:59.189Z,101248.31
2022-08-10T09:24:49.857Z,101247.03
2022-08-10T09:27:26.770Z,101243.03
2022-08-10T09:30:02.032Z,101237.34
2022-08-10T09:36:15.667Z,101237.94
2022-08-10T09:36:26.172Z,101236.63
2022-08-10T09:38:51.290Z,101237.53
2022-08-10T09:41:41.618Z,101235.47
2022-08-10T09:44:32.655Z,101241.69
2022-08-10T09:47:15.930Z,101241.25
2022-08-10T09:50:04.478Z,101245.88
2022-08-10T09:52:48.249Z,101229.88
2022-08-10T09:56:17.915Z,101241.28
2022-08-10T09:58:42.961Z,101231.44
2022-08-10T10:02:03.071Z,101228.56
2022-08-10T10:04:50.373Z,101234.97
2022-08-10T10:07:25.993Z,101235.28
2022-08-10T10:10:00.252Z,101227.00
2022-08-10T10:12:42.358Z,101228.13
2022-08-10T10:15:31.496Z,101229.47
2022-08-10T10:18:28.925Z,101223.38
2022-08-10T10:21:24.149Z,101219.50
2022-08-10T10:24:21.187Z,101210.25
2022-08-10T10:27:16.449Z,101209.53
2022-08-10T10:30:03.039Z,101213.50
2022-08-10T10:32:59.457Z,101196.78
2022-08-10T10:35:44.240Z,101203.84
2022-08-10T10:38:13.135Z,101210.72
2022-08-10T10:40:55.334Z,101210.78
2022-08-10T10:43:59.646Z,101204.59
2022-08-10T10:46:46.240Z,101198.91
2022-08-10T10:49:28.129Z,101204.41
2022-08-10T10:52:04.705Z,101209.09
2022-08-10T10:55:01.822Z,101197.44
2022-08-10T10:57:59.007Z,101190.66
2022-08-10T11:00:25.944Z,101182.19
2022-08-10T11:03:15.341Z,101182.06
2022-08-10T11:05:52.982Z,101165.13
2022-08-10T11:08:31.193Z,101174.13
2022-08-10T11:11:09.409Z,101173.56
2022-08-10T11:14:25.224Z,101171.50
2022-08-10T11:17:01.073Z,101164.91
2022-08-10T11:20:00.180Z,101167.06
2022-08-10T11:22:50.197Z,101161.38
2022-08-10T11:25:31.708Z,101162.06
2022-08-10T11:28:08.372Z,101157.44
2022-08-10T11:30:50.169Z,101144.03
2022-08-10T11:33:39.358Z,101159.00
2022-08-10T11:36:46.930Z,101158.94
2022-08-10T11:39:52.667Z,101160.06
2022-08-10T11:42:30.319Z,101155.91
2022-08-10T11:45:06.087Z,101150.66
2022-08-10T11:47:41.210Z,101148.28
2022-08-10T11:50:36.683Z,101138.47
2022-08-10T11:53:17.376Z,101137.91
2022-08-10T11:55:49.202Z,101135.28
2022-08-10T11:58:35.946Z,101131.31
2022-08-10T12:01:06.691Z,101138.53
2022-08-10T12:03:36.239Z,101128.75
2022-08-10T12:06:06.021Z,101131.03
2022-08-10T12:10:11.732Z,101110.78
2022-08-10T12:11:26.693Z,101121.69
2022-08-10T12:14:22.826Z,101120.19
2022-08-10T12:17:18.961Z,101114.38
2022-08-10T12:20:01.263Z,101112.50
2022-08-10T12:23:11.522Z,101107.53
2022-08-10T12:25:56.296Z,101109.25
2022-08-10T12:28:50.545Z,101101.97
2022-08-10T12:31:23.995Z,101105.66
2022-08-10T12:34:04.153Z,101095.34
2022-08-10T12:36:41.756Z,101077.94
2022-08-10T12:39:14.175Z,101084.78
2022-08-10T12:41:58.512Z,101086.78
2022-08-10T12:44:41.076Z,101078.44
2022-08-10T12:47:40.382Z,101082.03
2022-08-10T12:50:30.419Z,101076.53
2022-08-10T12:53:10.770Z,101073.16
2022-08-10T12:55:41.495Z,101061.69
2022-08-10T12:58:58.989Z,101051.94
2022-08-10T13:01:18.070Z,101053.75
2022-08-10T13:04:20.903Z,101054.34
2022-08-10T13:06:41.635Z,101043.03
2022-08-10T13:09:08.625Z,101051.03
2022-08-10T13:12:35.974Z,101042.56
2022-08-10T13:14:57.732Z,101046.16
2022-08-10T13:17:38.576Z,101037.31
2022-08-10T13:20:16.382Z,101038.44
2022-08-10T13:22:45.431Z,101023.50
2022-08-10T13:25:15.267Z,101023.56
2022-08-10T13:28:00.787Z,101023.22
2022-08-10T13:30:33.378Z,101023.28
2022-08-10T13:33:04.602Z,101017.09
2022-08-10T13:35:32.385Z,101008.63
2022-08-10T13:38:01.734Z,101015.59
2022-08-10T13:40:29.105Z,101026.19
2022-08-10T13:42:59.594Z,101017.97
2022-08-10T13:45:28.161Z,101009.47
2022-08-10T13:48:06.870Z,101005.38
2022-08-10T13:50:37.413Z,101004.53
2022-08-10T13:53:14.902Z,101004.03
2022-08-10T13:55:57.047Z,101005.38
2022-08-10T13:58:29.006Z,101002.09
2022-08-10T14:00:58.042Z,100992.94
2022-08-10T14:03:25.736Z,100986.47
2022-08-10T14:05:54.049Z,100987.13
2022-08-10T14:08:25.033Z,100983.56
2022-08-10T14:11:09.139Z,100973.59
2022-08-10T14:13:43.893Z,100967.41
2022-08-10T14:16:11.750Z,100984.81
2022-08-10T14:18:39.719Z,100968.44
2022-08-10T14:21:06.757Z,100975.09
2022-08-10T14:23:40.105Z,100971.88
2022-08-10T14:26:09.387Z,100963.56
2022-08-10T14:28:43.763Z,100958.19
2022-08-10T14:31:13.338Z,100963.56
2022-08-10T14:33:47.000Z,100969.88
2022-08-10T14:36:31.820Z,100954.03
2022-08-10T14:39:00.793Z,100939.88
2022-08-10T14:42:02.843Z,100954.69
2022-08-10T14:44:21.889Z,100949.38
2022-08-10T14:46:58.657Z,100943.59
2022-08-10T14:49:28.761Z,100927.69
2022-08-10T14:52:02.430Z,100942.72
2022-08-10T14:54:32.225Z,100942.78
2022-08-10T14:57:11.057Z,100943.00
2022-08-10T15:00:24.093Z,100940.63
2022-08-10T15:02:40.431Z,100946.25
2022-08-10T15:05:17.376Z,100934.50
2022-08-10T15:07:59.254Z,100922.72
2022-08-10T15:10:27.079Z,100928.84
2022-08-10T15:12:55.331Z,100915.16
2022-08-10T15:15:28.021Z,100929.88
2022-08-10T15:17:57.722Z,100921.38
2022-08-10T15:20:27.024Z,100925.97
2022-08-10T15:23:30.008Z,100923.38
2022-08-10T15:26:04.784Z,100917.78
2022-08-10T15:29:24.426Z,100916.69
2022-08-10T15:31:33.115Z,100916.47
2022-08-10T15:34:32.970Z,100911.03
2022-08-10T15:37:40.063Z,100912.94
2022-08-10T15:40:27.995Z,100910.41
2022-08-10T15:43:01.872Z,100901.56
2022-08-10T15:45:34.520Z,100907.19
2022-08-10T15:48:03.361Z,100902.59
2022-08-10T15:50:40.039Z,100905.50
2022-08-10T15:53:27.847Z,100900.59
2022-08-10T15:56:02.569Z,100888.19
2022-08-10T15:58:47.721Z,100887.56
2022-08-10T16:02:13.113Z,100904.00
2022-08-10T16:04:15.519Z,100888.13
2022-08-10T16:06:49.010Z,100892.34
2022-08-10T16:10:22.539Z,100887.22
2022-08-10T16:12:18.105Z,100889.41
2022-08-10T16:14:56.767Z,100885.44
2022-08-10T16:17:24.178Z,100891.75
2022-08-10T16:19:53.463Z,100884.09
2022-08-10T16:22:36.599Z,100882.78
2022-08-10T16:25:14.013Z,100882.78
2022-08-10T16:27:42.946Z,100872.25
2022-08-10T16:30:09.769Z,100876.13
2022-08-10T16:32:38.480Z,100882.41
2022-08-10T16:35:09.304Z,100876.91
2022-08-10T16:37:57.848Z,100870.84
2022-08-10T16:40:26.842Z,100874.63
2022-08-10T16:42:53.973Z,100875.84
2022-08-10T16:45:43.624Z,100880.63
2022-08-10T16:48:11.125Z,100869.22
2022-08-10T16:50:41.662Z,100862.75
2022-08-10T16:53:13.087Z,100860.84
2022-08-10T16:55:48.414Z,100845.00
2022-08-10T16:58:20.731Z,100868.38
2022-08-10T17:00:49.781Z,100851.03
2022-08-10T17:04:05.355Z,100859.38
2022-08-10T17:06:10.784Z,100867.34
2022-08-10T17:08:48.419Z,100874.81
2022-08-10T17:11:17.186Z,100872.31
2022-08-10T17:13:43.796Z,100862.50
2022-08-10T17:16:12.251Z,100867.41
2022-08-10T17:18:42.091Z,100862.28
2022-08-10T17:21:20.853Z,100855.00
2022-08-10T17:23:51.409Z,100859.69
2022-08-10T17:26:23.954Z,100855.25
2022-08-10T17:29:58.826Z,100865.41
2022-08-10T17:32:08.695Z,100872.50
2022-08-10T17:34:44.422Z,100869.66
2022-08-10T17:37:17.592Z,100850.91
2022-08-10T17:39:56.184Z,100859.91
2022-08-10T17:42:25.165Z,100855.06
2022-08-10T17:44:54.041Z,100866.56
2022-08-10T17:47:24.431Z,100848.81
2022-08-10T17:49:57.866Z,100860.69
2022-08-10T17:52:31.565Z,100855.56
2022-08-10T17:55:04.215Z,100850.50
2022-08-10T17:57:36.387Z,100844.25
2022-08-10T18:00:06.367Z,100871.16
2022-08-10T18:02:36.592Z,100855.88
2022-08-10T18:05:04.174Z,100871.59
2022-08-10T18:07:38.580Z,100880.78
2022-08-10T18:10:08.714Z,100868.22
2022-08-10T18:12:46.934Z,100866.03
2022-08-10T18:15:17.815Z,100846.97
2022-08-10T18:17:49.365Z,100857.44
2022-08-10T18:20:20.123Z,100862.41
2022-08-10T18:22:55.829Z,100868.28
2022-08-10T18:25:29.729Z,100868.84
2022-08-10T18:28:04.273Z,100874.97
2022-08-10T18:30:36.377Z,100877.22
2022-08-10T18:33:08.388Z,100869.31
2022-08-10T18:35:35.521Z,100883.41
2022-08-10T18:38:04.832Z,100884.00
2022-08-10T18:40:36.734Z,100884.88
2022-08-10T18:44:06.444Z,100882.69
2022-08-10T18:45:56.616Z,100881.16
2022-08-10T18:48:32.944Z,100884.75
2022-08-10T18:51:05.636Z,100887.50
2022-08-10T18:53:50.714Z,100896.31
2022-08-10T18:56:20.212Z,100891.75
2022-08-10T18:59:09.754Z,100891.78
2022-08-10T19:01:51.093Z,100893.16
2022-08-10T19:04:30.831Z,100888.81
2022-08-10T19:07:36.254Z,100892.94
2022-08-10T19:10:16.536Z,100902.31
2022-08-10T19:13:04.041Z,100897.91
2022-08-10T19:15:42.582Z,100908.06
2022-08-10T19:18:31.810Z,100880.72
2022-08-10T19:21:05.314Z,100903.41
2022-08-10T19:23:47.787Z,100909.75
2022-08-10T19:26:44.815Z,100904.56
2022-08-10T19:30:12.059Z,100908.38
2022-08-10T19:32:32.593Z,100908.94
2022-08-10T19:35:25.299Z,100905.94
2022-08-10T19:38:16.391Z,100910.63
2022-08-10T19:41:09.576Z,100922.38
2022-08-10T19:44:00.807Z,100914.44
2022-08-10T19:46:51.398Z,100914.41
2022-08-10T19:49:49.960Z,100911.41
2022-08-10T19:52:34.622Z,100908.97
2022-08-10T19:55:38.648Z,100915.25
2022-08-10T19:58:20.661Z,100885.44
2022-08-10T20:01:05.754Z,100903.19
2022-08-10T20:03:41.778Z,100903.75
2022-08-10T20:06:20.693Z,100908.69
2022-08-10T20:08:56.908Z,100907.56
2022-08-10T20:11:44.893Z,100927.25
2022-08-10T20:14:35.293Z,100929.41
2022-08-10T20:17:09.838Z,100927.22
2022-08-10T20:19:53.378Z,100923.94
2022-08-10T20:22:29.172Z,100926.63
2022-08-10T20:25:23.864Z,100931.25
2022-08-10T20:28:00.162Z,100930.44
2022-08-10T20:30:32.592Z,100927.13
2022-08-10T20:33:23.178Z,100927.09
2022-08-10T20:36:00.204Z,100928.16
2022-08-10T20:38:45.899Z,100930.09
2022-08-10T20:41:24.440Z,100927.84
2022-08-10T20:44:24.173Z,100929.19
2022-08-10T20:46:59.187Z,100923.44
2022-08-10T20:50:06.937Z,100924.53
2022-08-10T20:52:35.416Z,100922.84
2022-08-10T20:55:08.619Z,100928.81
2022-08-10T20:58:18.237Z,100926.91
2022-08-10T21:00:52.530Z,100921.97
2022-08-10T21:03:34.755Z,100930.63
2022-08-10T21:06:42.098Z,100925.13
2022-08-10T21:09:36.313Z,100928.34
2022-08-10T21:12:32.042Z,100930.75
2022-08-10T21:15:20.703Z,100923.53
2022-08-10T21:18:10.870Z,100931.66
2022-08-10T21:20:54.658Z,100932.16
2022-08-10T21:23:30.664Z,100930.78
2022-08-10T21:26:13.296Z,100927.22
2022-08-10T21:29:06.661Z,100928.56
2022-08-10T21:32:00.100Z,100930.69
2022-08-10T21:34:32.151Z,100926.84
2022-08-10T21:37:07.943Z,100933.06
2022-08-10T21:39:46.602Z,100926.16
2022-08-10T21:42:53.359Z,100930.47
2022-08-10T21:46:20.161Z,100924.13
2022-08-10T21:49:24.081Z,100926.00
2022-08-10T21:52:38.966Z,100924.31
2022-08-10T21:58:51.509Z,100919.81
2022-08-10T22:01:51.276Z,100924.41
2022-08-10T22:04:38.134Z,100932.28
2022-08-10T22:07:28.653Z,100925.66
2022-08-10T22:10:25.618Z,100920.75
2022-08-10T22:13:13.140Z,100919.59
2022-08-10T22:16:10.634Z,100923.34
2022-08-10T22:19:02.237Z,100916.75
2022-08-10T22:21:57.717Z,100916.66
2022-08-10T22:24:42.565Z,100920.41
2022-08-10T22:27:52.621Z,100904.38
2022-08-10T22:30:41.560Z,100921.28
2022-08-10T22:31:28.037Z,100919.88
2022-08-10T22:33:41.192Z,100920.16
2022-08-10T22:36:53.703Z,100917.03
2022-08-10T22:40:12.210Z,100920.31
2022-08-10T22:42:59.407Z,100913.16
2022-08-10T22:45:57.110Z,100916.88
2022-08-10T22:48:41.901Z,100917.06
2022-08-10T22:51:15.087Z,100908.34
2022-08-10T22:54:07.230Z,100914.75
2022-08-10T22:56:57.197Z,100915.75
2022-08-10T22:59:29.190Z,100903.66
2022-08-10T23:02:07.919Z,100904.34
2022-08-10T23:04:38.358Z,100906.19
2022-08-10T23:07:30.002Z,100899.75
2022-08-10T23:10:09.101Z,100907.69
2022-08-10T23:12:46.658Z,100910.06
2022-08-10T23:15:59.373Z,100908.31
2022-08-10T23:18:55.317Z,100914.25
2022-08-10T23:21:28.309Z,100910.16
2022-08-10T23:24:17.052Z,100912.06
2022-08-10T23:26:44.496Z,100912.28
2022-08-10T23:29:16.610Z,100918.22
2022-08-10T23:31:53.514Z,100920.38
2022-08-10T23:34:35.957Z,100916.72
2022-08-10T23:37:06.055Z,100920.75
2022-08-10T23:39:42.537Z,100912.50
2022-08-10T23:42:14.107Z,100912.44
2022-08-10T23:44:47.357Z,100907.22
2022-08-10T23:47:18.625Z,100911.84
2022-08-10T23:49:47.977Z,100915.06
2022-08-10T23:52:19.810Z,100913.06
2022-08-10T23:54:49.702Z,100904.81
2022-08-10T23:57:19.353Z,100908.84
2022-08-10T23:59:52.626Z,100885.47
